sensor_id;sensor_type;location;lat;lon;timestamp;temperature;humidity
2158;DHT22;41972;48.774;9.282;2023-06-04T00:00:25;16.00;99.90
2158;DHT22;41972;48.774;9.282;2023-06-04T00:02:51;16.20;99.90
2158;DHT22;41972;48.774;9.282;2023-06-04T00:05:16;16.20;99.90
2158;DHT22;41972;48.774;9.282;2023-06-04T00:07:42;16.10;99.90
2158;DHT22;41972;48.774;9.282;2023-06-04T00:10:08;16.00;99.90
2158;DHT22;41972;48.774;9.282;2023-06-04T00:12:34;16.00;99.90
2158;DHT22;41972;48.774;9.282;2023-06-04T00:14:59;15.90;99.90
2158;DHT22;41972;48.774;9.282;2023-06-04T00:17:25;15.90;99.90
2158;DHT22;41972;48.774;9.282;2023-06-04T00:19:51;15.70;99.90
2158;DHT22;41972;48.774;9.282;2023-06-04T00:22:16;15.50;99.90
2158;DHT22;41972;48.774;9.282;2023-06-04T00:24:42;15.30;99.90
2158;DHT22;41972;48.774;9.282;2023-06-04T00:27:08;15.10;99.90
2158;DHT22;41972;48.774;9.282;2023-06-04T00:29:34;15.00;99.90
2158;DHT22;41972;48.774;9.282;2023-06-04T00:32:00;14.90;99.90
2158;DHT22;41972;48.774;9.282;2023-06-04T00:34:26;15.00;99.90
2158;DHT22;41972;48.774;9.282;2023-06-04T00:36:51;15.20;99.90
2158;DHT22;41972;48.774;9.282;2023-06-04T00:39:17;15.30;99.90
2158;DHT22;41972;48.774;9.282;2023-06-04T00:41:42;15.30;99.90
2158;DHT22;41972;48.774;9.282;2023-06-04T00:44:08;15.50;99.90
2158;DHT22;41972;48.774;9.282;2023-06-04T00:46:35;15.40;99.90
2158;DHT22;41972;48.774;9.282;2023-06-04T00:49:01;15.30;99.90
2158;DHT22;41972;48.774;9.282;2023-06-04T00:51:29;15.30;99.90
2158;DHT22;41972;48.774;9.282;2023-06-04T00:53:55;15.10;99.90
2158;DHT22;41972;48.774;9.282;2023-06-04T00:56:21;15.00;99.90
2158;DHT22;41972;48.774;9.282;2023-06-04T00:58:48;14.80;99.90
2158;DHT22;41972;48.774;9.282;2023-06-04T01:01:26;14.70;99.90
2158;DHT22;41972;48.774;9.282;2023-06-04T01:03:55;14.30;99.90
2158;DHT22;41972;48.774;9.282;2023-06-04T01:06:34;14.00;99.90
2158;DHT22;41972;48.774;9.282;2023-06-04T01:09:01;13.70;99.90
2158;DHT22;41972;48.774;9.282;2023-06-04T01:11:37;13.80;99.90
2158;DHT22;41972;48.774;9.282;2023-06-04T01:14:07;13.90;99.90
2158;DHT22;41972;48.774;9.282;2023-06-04T01:16:41;14.00;99.90
2158;DHT22;41972;48.774;9.282;2023-06-04T01:25:03;13.90;99.90
2158;DHT22;41972;48.774;9.282;2023-06-04T01:27:30;14.00;99.90
2158;DHT22;41972;48.774;9.282;2023-06-04T01:29:56;14.10;99.90
2158;DHT22;41972;48.774;9.282;2023-06-04T01:32:26;14.10;99.90
2158;DHT22;41972;48.774;9.282;2023-06-04T01:34:51;14.00;99.90
2158;DHT22;41972;48.774;9.282;2023-06-04T01:37:17;14.10;99.90
2158;DHT22;41972;48.774;9.282;2023-06-04T01:39:43;14.10;99.90
2158;DHT22;41972;48.774;9.282;2023-06-04T01:42:10;14.10;99.90
2158;DHT22;41972;48.774;9.282;2023-06-04T01:44:36;14.00;99.90
2158;DHT22;41972;48.774;9.282;2023-06-04T01:47:01;13.60;99.90
2158;DHT22;41972;48.774;9.282;2023-06-04T01:49:27;13.50;99.90
2158;DHT22;41972;48.774;9.282;2023-06-04T01:51:52;13.60;99.90
2158;DHT22;41972;48.774;9.282;2023-06-04T01:54:18;13.60;99.90
2158;DHT22;41972;48.774;9.282;2023-06-04T01:56:44;13.50;99.90
2158;DHT22;41972;48.774;9.282;2023-06-04T01:59:09;13.60;99.90
2158;DHT22;41972;48.774;9.282;2023-06-04T02:01:37;14.00;99.90
2158;DHT22;41972;48.774;9.282;2023-06-04T02:04:03;14.20;99.90
2158;DHT22;41972;48.774;9.282;2023-06-04T02:06:29;14.30;99.90
2158;DHT22;41972;48.774;9.282;2023-06-04T02:08:55;14.40;99.90
2158;DHT22;41972;48.774;9.282;2023-06-04T02:11:21;14.30;99.90
2158;DHT22;41972;48.774;9.282;2023-06-04T02:13:47;14.00;99.90
2158;DHT22;41972;48.774;9.282;2023-06-04T02:16:13;13.80;99.90
2158;DHT22;41972;48.774;9.282;2023-06-04T02:18:38;13.60;99.90
2158;DHT22;41972;48.774;9.282;2023-06-04T02:21:04;13.50;99.90
2158;DHT22;41972;48.774;9.282;2023-06-04T02:23:30;13.70;99.90
2158;DHT22;41972;48.774;9.282;2023-06-04T02:25:55;13.50;99.90
2158;DHT22;41972;48.774;9.282;2023-06-04T02:28:21;13.20;99.90
2158;DHT22;41972;48.774;9.282;2023-06-04T02:30:46;13.10;99.90
2158;DHT22;41972;48.774;9.282;2023-06-04T02:33:12;13.00;99.90
2158;DHT22;41972;48.774;9.282;2023-06-04T02:35:38;12.90;99.90
2158;DHT22;41972;48.774;9.282;2023-06-04T02:38:04;12.80;99.90
2158;DHT22;41972;48.774;9.282;2023-06-04T02:40:30;12.80;99.90
2158;DHT22;41972;48.774;9.282;2023-06-04T02:42:56;12.60;99.90
2158;DHT22;41972;48.774;9.282;2023-06-04T02:45:23;12.30;99.90
2158;DHT22;41972;48.774;9.282;2023-06-04T02:47:48;12.50;99.90
2158;DHT22;41972;48.774;9.282;2023-06-04T02:50:14;12.10;99.90
2158;DHT22;41972;48.774;9.282;2023-06-04T02:52:43;11.90;99.90
2158;DHT22;41972;48.774;9.282;2023-06-04T02:55:09;11.90;99.90
2158;DHT22;41972;48.774;9.282;2023-06-04T02:57:38;12.00;99.90
2158;DHT22;41972;48.774;9.282;2023-06-04T03:00:04;12.00;99.90
2158;DHT22;41972;48.774;9.282;2023-06-04T03:02:38;12.00;99.90
2158;DHT22;41972;48.774;9.282;2023-06-04T03:05:04;11.90;99.90
2158;DHT22;41972;48.774;9.282;2023-06-04T03:07:30;11.80;99.90
2158;DHT22;41972;48.774;9.282;2023-06-04T03:09:56;11.70;99.90
2158;DHT22;41972;48.774;9.282;2023-06-04T03:12:22;11.60;99.90
2158;DHT22;41972;48.774;9.282;2023-06-04T03:14:48;11.60;99.90
2158;DHT22;41972;48.774;9.282;2023-06-04T03:17:13;11.50;99.90
2158;DHT22;41972;48.774;9.282;2023-06-04T03:19:40;11.50;99.90
2158;DHT22;41972;48.774;9.282;2023-06-04T03:22:07;11.40;99.90
2158;DHT22;41972;48.774;9.282;2023-06-04T03:24:35;11.40;99.90
2158;DHT22;41972;48.774;9.282;2023-06-04T03:27:02;11.30;99.90
2158;DHT22;41972;48.774;9.282;2023-06-04T03:29:27;11.20;99.90
2158;DHT22;41972;48.774;9.282;2023-06-04T03:31:53;11.00;99.90
2158;DHT22;41972;48.774;9.282;2023-06-04T03:34:19;11.00;99.90
2158;DHT22;41972;48.774;9.282;2023-06-04T03:36:44;11.10;99.90
2158;DHT22;41972;48.774;9.282;2023-06-04T03:39:10;11.10;99.90
2158;DHT22;41972;48.774;9.282;2023-06-04T03:41:36;11.00;99.90
2158;DHT22;41972;48.774;9.282;2023-06-04T03:44:01;11.10;99.90
2158;DHT22;41972;48.774;9.282;2023-06-04T03:46:27;11.20;99.90
2158;DHT22;41972;48.774;9.282;2023-06-04T03:48:57;11.00;99.90
2158;DHT22;41972;48.774;9.282;2023-06-04T03:51:22;11.10;99.90
2158;DHT22;41972;48.774;9.282;2023-06-04T03:53:48;11.10;99.90
2158;DHT22;41972;48.774;9.282;2023-06-04T03:56:13;11.20;99.90
2158;DHT22;41972;48.774;9.282;2023-06-04T03:58:39;11.40;99.90
2158;DHT22;41972;48.774;9.282;2023-06-04T04:01:05;11.40;99.90
2158;DHT22;41972;48.774;9.282;2023-06-04T04:03:33;11.40;99.90
2158;DHT22;41972;48.774;9.282;2023-06-04T04:06:00;11.50;99.90
2158;DHT22;41972;48.774;9.282;2023-06-04T04:08:25;11.50;99.90
2158;DHT22;41972;48.774;9.282;2023-06-04T04:10:55;11.60;99.90
2158;DHT22;41972;48.774;9.282;2023-06-04T04:13:21;11.70;99.90
2158;DHT22;41972;48.774;9.282;2023-06-04T04:15:46;11.80;99.90
2158;DHT22;41972;48.774;9.282;2023-06-04T04:18:12;11.60;99.90
2158;DHT22;41972;48.774;9.282;2023-06-04T04:20:38;11.50;99.90
2158;DHT22;41972;48.774;9.282;2023-06-04T04:23:04;12.10;99.90
2158;DHT22;41972;48.774;9.282;2023-06-04T04:25:31;12.80;99.90
2158;DHT22;41972;48.774;9.282;2023-06-04T04:27:57;13.80;99.90
2158;DHT22;41972;48.774;9.282;2023-06-04T04:30:25;14.20;99.90
2158;DHT22;41972;48.774;9.282;2023-06-04T04:32:51;14.10;99.90
2158;DHT22;41972;48.774;9.282;2023-06-04T04:35:17;14.60;99.90
2158;DHT22;41972;48.774;9.282;2023-06-04T04:37:44;16.30;99.90
2158;DHT22;41972;48.774;9.282;2023-06-04T04:40:10;17.00;99.90
2158;DHT22;41972;48.774;9.282;2023-06-04T04:42:37;16.90;99.90
2158;DHT22;41972;48.774;9.282;2023-06-04T04:45:03;17.50;99.90
2158;DHT22;41972;48.774;9.282;2023-06-04T04:47:29;17.80;99.90
2158;DHT22;41972;48.774;9.282;2023-06-04T04:49:54;17.90;99.90
2158;DHT22;41972;48.774;9.282;2023-06-04T04:52:20;17.20;99.90
2158;DHT22;41972;48.774;9.282;2023-06-04T04:54:46;17.50;99.90
2158;DHT22;41972;48.774;9.282;2023-06-04T04:57:11;19.00;99.90
2158;DHT22;41972;48.774;9.282;2023-06-04T04:59:37;18.50;99.90
2158;DHT22;41972;48.774;9.282;2023-06-04T05:02:02;19.50;99.90
2158;DHT22;41972;48.774;9.282;2023-06-04T05:04:28;20.20;99.90
2158;DHT22;41972;48.774;9.282;2023-06-04T05:06:53;18.60;99.90
2158;DHT22;41972;48.774;9.282;2023-06-04T05:09:19;18.50;99.90
2158;DHT22;41972;48.774;9.282;2023-06-04T05:11:44;18.80;99.90
2158;DHT22;41972;48.774;9.282;2023-06-04T05:14:10;19.90;99.90
2158;DHT22;41972;48.774;9.282;2023-06-04T05:16:36;20.80;99.90
2158;DHT22;41972;48.774;9.282;2023-06-04T05:19:03;21.50;99.90
2158;DHT22;41972;48.774;9.282;2023-06-04T05:21:29;19.70;99.90
2158;DHT22;41972;48.774;9.282;2023-06-04T05:23:55;20.70;99.90
2158;DHT22;41972;48.774;9.282;2023-06-04T05:26:20;19.70;99.90
2158;DHT22;41972;48.774;9.282;2023-06-04T05:28:52;19.30;99.90
2158;DHT22;41972;48.774;9.282;2023-06-04T05:31:18;18.70;99.90
2158;DHT22;41972;48.774;9.282;2023-06-04T05:33:44;17.50;99.90
2158;DHT22;41972;48.774;9.282;2023-06-04T05:36:10;17.70;99.90
2158;DHT22;41972;48.774;9.282;2023-06-04T05:38:36;18.90;99.90
2158;DHT22;41972;48.774;9.282;2023-06-04T05:41:02;21.50;99.90
2158;DHT22;41972;48.774;9.282;2023-06-04T05:43:28;22.30;99.90
2158;DHT22;41972;48.774;9.282;2023-06-04T05:45:53;23.30;99.90
2158;DHT22;41972;48.774;9.282;2023-06-04T05:48:19;22.20;99.90
2158;DHT22;41972;48.774;9.282;2023-06-04T05:50:44;21.50;99.90
2158;DHT22;41972;48.774;9.282;2023-06-04T05:53:10;21.50;99.90
2158;DHT22;41972;48.774;9.282;2023-06-04T05:55:36;21.10;99.90
2158;DHT22;41972;48.774;9.282;2023-06-04T05:58:01;21.80;99.90
2158;DHT22;41972;48.774;9.282;2023-06-04T06:00:27;21.30;99.90
2158;DHT22;41972;48.774;9.282;2023-06-04T06:02:53;21.10;99.90
2158;DHT22;41972;48.774;9.282;2023-06-04T06:05:19;20.70;30.40
2158;DHT22;41972;48.774;9.282;2023-06-04T06:07:45;22.30;99.90
2158;DHT22;41972;48.774;9.282;2023-06-04T06:10:11;23.50;99.90
2158;DHT22;41972;48.774;9.282;2023-06-04T06:12:37;23.20;99.90
2158;DHT22;41972;48.774;9.282;2023-06-04T06:15:03;22.30;99.90
2158;DHT22;41972;48.774;9.282;2023-06-04T06:17:29;21.80;99.90
2158;DHT22;41972;48.774;9.282;2023-06-04T06:19:55;22.00;99.90
2158;DHT22;41972;48.774;9.282;2023-06-04T06:22:21;20.80;99.90
2158;DHT22;41972;48.774;9.282;2023-06-04T06:24:47;21.80;99.90
2158;DHT22;41972;48.774;9.282;2023-06-04T06:27:16;23.00;99.90
2158;DHT22;41972;48.774;9.282;2023-06-04T06:29:42;22.50;99.90
2158;DHT22;41972;48.774;9.282;2023-06-04T06:32:10;23.10;99.90
2158;DHT22;41972;48.774;9.282;2023-06-04T06:34:36;23.80;99.90
2158;DHT22;41972;48.774;9.282;2023-06-04T06:37:02;23.50;99.90
2158;DHT22;41972;48.774;9.282;2023-06-04T06:39:28;24.10;99.90
2158;DHT22;41972;48.774;9.282;2023-06-04T06:41:53;24.50;99.90
2158;DHT22;41972;48.774;9.282;2023-06-04T06:44:19;23.70;99.90
2158;DHT22;41972;48.774;9.282;2023-06-04T06:46:44;23.70;99.90
2158;DHT22;41972;48.774;9.282;2023-06-04T06:49:10;23.30;99.90
2158;DHT22;41972;48.774;9.282;2023-06-04T06:51:35;22.90;99.90
2158;DHT22;41972;48.774;9.282;2023-06-04T06:54:01;22.40;99.90
2158;DHT22;41972;48.774;9.282;2023-06-04T06:56:27;22.80;99.90
2158;DHT22;41972;48.774;9.282;2023-06-04T06:58:52;24.50;99.90
2158;DHT22;41972;48.774;9.282;2023-06-04T07:01:18;24.30;99.90
2158;DHT22;41972;48.774;9.282;2023-06-04T07:03:43;25.50;99.90
2158;DHT22;41972;48.774;9.282;2023-06-04T07:06:09;25.00;99.90
2158;DHT22;41972;48.774;9.282;2023-06-04T07:08:35;26.80;99.90
2158;DHT22;41972;48.774;9.282;2023-06-04T07:11:02;26.50;99.90
2158;DHT22;41972;48.774;9.282;2023-06-04T07:13:28;26.80;99.90
2158;DHT22;41972;48.774;9.282;2023-06-04T07:15:53;25.90;99.90
2158;DHT22;41972;48.774;9.282;2023-06-04T07:18:19;26.40;99.90
2158;DHT22;41972;48.774;9.282;2023-06-04T07:20:45;25.40;99.90
2158;DHT22;41972;48.774;9.282;2023-06-04T07:23:10;23.80;99.90
2158;DHT22;41972;48.774;9.282;2023-06-04T07:25:36;23.00;99.90
2158;DHT22;41972;48.774;9.282;2023-06-04T07:28:02;23.30;99.90
2158;DHT22;41972;48.774;9.282;2023-06-04T07:30:29;25.40;99.90
2158;DHT22;41972;48.774;9.282;2023-06-04T07:32:55;27.80;3.50
2158;DHT22;41972;48.774;9.282;2023-06-04T07:35:21;26.10;1.00
2158;DHT22;41972;48.774;9.282;2023-06-04T07:37:46;26.70;99.90
2158;DHT22;41972;48.774;9.282;2023-06-04T07:40:14;28.70;1.00
2158;DHT22;41972;48.774;9.282;2023-06-04T07:42:41;28.60;1.00
2158;DHT22;41972;48.774;9.282;2023-06-04T07:45:08;29.70;1.00
2158;DHT22;41972;48.774;9.282;2023-06-04T07:47:35;31.80;1.00
2158;DHT22;41972;48.774;9.282;2023-06-04T07:50:00;30.50;1.00
2158;DHT22;41972;48.774;9.282;2023-06-04T07:52:26;26.40;1.00
2158;DHT22;41972;48.774;9.282;2023-06-04T07:54:52;25.80;1.00
2158;DHT22;41972;48.774;9.282;2023-06-04T07:57:17;24.40;4.10
2158;DHT22;41972;48.774;9.282;2023-06-04T07:59:43;27.10;1.00
2158;DHT22;41972;48.774;9.282;2023-06-04T08:02:08;29.90;1.00
2158;DHT22;41972;48.774;9.282;2023-06-04T08:04:34;31.90;1.00
2158;DHT22;41972;48.774;9.282;2023-06-04T08:06:59;31.70;1.00
2158;DHT22;41972;48.774;9.282;2023-06-04T08:09:26;27.40;1.00
2158;DHT22;41972;48.774;9.282;2023-06-04T08:11:51;24.90;1.00
2158;DHT22;41972;48.774;9.282;2023-06-04T08:14:17;25.30;1.00
2158;DHT22;41972;48.774;9.282;2023-06-04T08:16:42;26.40;1.00
2158;DHT22;41972;48.774;9.282;2023-06-04T08:19:08;26.50;1.00
2158;DHT22;41972;48.774;9.282;2023-06-04T08:21:34;26.70;1.00
2158;DHT22;41972;48.774;9.282;2023-06-04T08:23:59;26.10;1.00
2158;DHT22;41972;48.774;9.282;2023-06-04T08:26:25;25.00;1.00
2158;DHT22;41972;48.774;9.282;2023-06-04T08:28:52;25.90;99.90
2158;DHT22;41972;48.774;9.282;2023-06-04T08:31:18;24.20;99.90
2158;DHT22;41972;48.774;9.282;2023-06-04T08:33:45;24.70;99.90
2158;DHT22;41972;48.774;9.282;2023-06-04T08:36:11;24.90;99.90
2158;DHT22;41972;48.774;9.282;2023-06-04T08:38:36;22.90;99.90
2158;DHT22;41972;48.774;9.282;2023-06-04T08:43:52;23.20;99.90
2158;DHT22;41972;48.774;9.282;2023-06-04T08:46:21;23.30;99.90
2158;DHT22;41972;48.774;9.282;2023-06-04T08:48:47;23.90;99.90
2158;DHT22;41972;48.774;9.282;2023-06-04T08:51:14;23.80;99.90
2158;DHT22;41972;48.774;9.282;2023-06-04T08:53:42;25.00;99.90
2158;DHT22;41972;48.774;9.282;2023-06-04T08:56:08;26.60;99.90
2158;DHT22;41972;48.774;9.282;2023-06-04T08:58:35;24.60;99.90
2158;DHT22;41972;48.774;9.282;2023-06-04T09:01:01;24.10;99.90
2158;DHT22;41972;48.774;9.282;2023-06-04T09:03:31;24.60;99.90
2158;DHT22;41972;48.774;9.282;2023-06-04T09:05:58;24.60;99.90
2158;DHT22;41972;48.774;9.282;2023-06-04T09:08:24;24.60;99.90
2158;DHT22;41972;48.774;9.282;2023-06-04T09:10:53;24.10;99.90
2158;DHT22;41972;48.774;9.282;2023-06-04T09:13:21;23.70;99.90
2158;DHT22;41972;48.774;9.282;2023-06-04T09:16:01;24.00;99.90
2158;DHT22;41972;48.774;9.282;2023-06-04T09:18:27;24.60;99.90
2158;DHT22;41972;48.774;9.282;2023-06-04T09:21:09;25.00;99.90
2158;DHT22;41972;48.774;9.282;2023-06-04T09:23:44;25.50;99.90
2158;DHT22;41972;48.774;9.282;2023-06-04T09:26:10;25.90;99.90
2158;DHT22;41972;48.774;9.282;2023-06-04T09:28:44;25.90;99.90
2158;DHT22;41972;48.774;9.282;2023-06-04T09:31:14;27.60;1.00
2158;DHT22;41972;48.774;9.282;2023-06-04T09:36:09;27.30;1.00
2158;DHT22;41972;48.774;9.282;2023-06-04T09:38:35;27.10;1.00
2158;DHT22;41972;48.774;9.282;2023-06-04T09:41:01;26.90;1.00
2158;DHT22;41972;48.774;9.282;2023-06-04T09:43:30;27.40;1.00
2158;DHT22;41972;48.774;9.282;2023-06-04T09:46:13;26.70;1.00
2158;DHT22;41972;48.774;9.282;2023-06-04T09:48:40;26.20;1.00
2158;DHT22;41972;48.774;9.282;2023-06-04T09:51:13;27.30;1.00
2158;DHT22;41972;48.774;9.282;2023-06-04T09:53:40;30.00;1.00
2158;DHT22;41972;48.774;9.282;2023-06-04T09:56:07;27.40;1.00
2158;DHT22;41972;48.774;9.282;2023-06-04T09:58:34;25.80;1.00
2158;DHT22;41972;48.774;9.282;2023-06-04T10:01:04;27.00;1.00
2158;DHT22;41972;48.774;9.282;2023-06-04T10:03:31;27.80;1.00
2158;DHT22;41972;48.774;9.282;2023-06-04T10:05:59;28.70;1.00
2158;DHT22;41972;48.774;9.282;2023-06-04T10:08:26;29.60;1.00
2158;DHT22;41972;48.774;9.282;2023-06-04T10:10:57;29.20;1.00
2158;DHT22;41972;48.774;9.282;2023-06-04T10:13:27;28.10;1.00
2158;DHT22;41972;48.774;9.282;2023-06-04T10:15:54;26.70;1.00
2158;DHT22;41972;48.774;9.282;2023-06-04T10:18:21;26.60;1.00
2158;DHT22;41972;48.774;9.282;2023-06-04T10:20:47;26.80;1.00
2158;DHT22;41972;48.774;9.282;2023-06-04T10:23:14;26.00;1.00
2158;DHT22;41972;48.774;9.282;2023-06-04T10:25:39;27.20;1.00
2158;DHT22;41972;48.774;9.282;2023-06-04T10:28:05;27.30;1.00
2158;DHT22;41972;48.774;9.282;2023-06-04T10:30:31;27.20;1.00
2158;DHT22;41972;48.774;9.282;2023-06-04T10:32:57;28.20;1.00
2158;DHT22;41972;48.774;9.282;2023-06-04T10:35:35;28.80;1.00
2158;DHT22;41972;48.774;9.282;2023-06-04T10:38:12;28.40;99.90
2158;DHT22;41972;48.774;9.282;2023-06-04T10:40:39;28.40;78.00
2158;DHT22;41972;48.774;9.282;2023-06-04T10:43:14;29.00;3.40
2158;DHT22;41972;48.774;9.282;2023-06-04T10:45:44;28.00;99.90
2158;DHT22;41972;48.774;9.282;2023-06-04T10:48:11;27.20;99.90
2158;DHT22;41972;48.774;9.282;2023-06-04T10:50:51;27.40;99.90
2158;DHT22;41972;48.774;9.282;2023-06-04T10:53:18;28.40;99.90
2158;DHT22;41972;48.774;9.282;2023-06-04T10:55:45;29.30;99.90
2158;DHT22;41972;48.774;9.282;2023-06-04T10:58:11;30.00;99.90
2158;DHT22;41972;48.774;9.282;2023-06-04T11:00:38;28.10;99.90
2158;DHT22;41972;48.774;9.282;2023-06-04T11:03:09;26.80;99.90
2158;DHT22;41972;48.774;9.282;2023-06-04T11:05:37;26.80;99.90
2158;DHT22;41972;48.774;9.282;2023-06-04T11:08:04;26.10;99.90
2158;DHT22;41972;48.774;9.282;2023-06-04T11:10:32;26.30;99.90
2158;DHT22;41972;48.774;9.282;2023-06-04T11:12:59;25.10;99.90
2158;DHT22;41972;48.774;9.282;2023-06-04T11:15:25;24.40;99.90
2158;DHT22;41972;48.774;9.282;2023-06-04T11:17:55;24.10;99.90
2158;DHT22;41972;48.774;9.282;2023-06-04T11:20:22;24.20;99.90
2158;DHT22;41972;48.774;9.282;2023-06-04T11:22:58;24.30;99.90
2158;DHT22;41972;48.774;9.282;2023-06-04T11:25:26;24.10;99.90
2158;DHT22;41972;48.774;9.282;2023-06-04T11:27:53;24.20;99.90
2158;DHT22;41972;48.774;9.282;2023-06-04T11:30:19;24.40;99.90
2158;DHT22;41972;48.774;9.282;2023-06-04T11:32:45;24.60;99.90
2158;DHT22;41972;48.774;9.282;2023-06-04T11:35:11;24.30;99.90
2158;DHT22;41972;48.774;9.282;2023-06-04T11:37:37;24.60;99.90
2158;DHT22;41972;48.774;9.282;2023-06-04T11:40:18;24.90;99.90
2158;DHT22;41972;48.774;9.282;2023-06-04T11:42:45;25.20;99.90
2158;DHT22;41972;48.774;9.282;2023-06-04T11:45:17;24.80;99.90
2158;DHT22;41972;48.774;9.282;2023-06-04T11:47:53;24.70;99.90
2158;DHT22;41972;48.774;9.282;2023-06-04T11:50:19;24.20;99.90
2158;DHT22;41972;48.774;9.282;2023-06-04T11:52:47;24.30;99.90
2158;DHT22;41972;48.774;9.282;2023-06-04T11:55:13;24.70;99.90
2158;DHT22;41972;48.774;9.282;2023-06-04T11:57:39;25.10;99.90
2158;DHT22;41972;48.774;9.282;2023-06-04T12:00:07;24.90;99.90
2158;DHT22;41972;48.774;9.282;2023-06-04T12:02:35;24.50;99.90
2158;DHT22;41972;48.774;9.282;2023-06-04T12:05:11;24.30;99.90
2158;DHT22;41972;48.774;9.282;2023-06-04T12:07:37;24.50;99.90
2158;DHT22;41972;48.774;9.282;2023-06-04T12:10:07;24.30;99.90
2158;DHT22;41972;48.774;9.282;2023-06-04T12:12:34;24.10;99.90
2158;DHT22;41972;48.774;9.282;2023-06-04T12:15:00;24.20;99.90
2158;DHT22;41972;48.774;9.282;2023-06-04T12:17:26;24.20;99.90
2158;DHT22;41972;48.774;9.282;2023-06-04T12:19:52;24.40;99.90
2158;DHT22;41972;48.774;9.282;2023-06-04T12:22:18;24.70;99.90
2158;DHT22;41972;48.774;9.282;2023-06-04T12:24:51;25.10;99.90
2158;DHT22;41972;48.774;9.282;2023-06-04T12:27:20;25.00;99.90
2158;DHT22;41972;48.774;9.282;2023-06-04T12:30:04;24.40;99.90
2158;DHT22;41972;48.774;9.282;2023-06-04T12:32:30;24.40;99.90
2158;DHT22;41972;48.774;9.282;2023-06-04T12:34:56;24.90;99.90
2158;DHT22;41972;48.774;9.282;2023-06-04T12:37:23;24.90;99.90
2158;DHT22;41972;48.774;9.282;2023-06-04T12:39:50;24.10;99.90
2158;DHT22;41972;48.774;9.282;2023-06-04T12:42:17;24.10;99.90
2158;DHT22;41972;48.774;9.282;2023-06-04T12:44:44;23.90;99.90
2158;DHT22;41972;48.774;9.282;2023-06-04T12:47:10;24.10;99.90
2158;DHT22;41972;48.774;9.282;2023-06-04T12:49:36;24.40;99.90
2158;DHT22;41972;48.774;9.282;2023-06-04T12:52:02;24.60;99.90
2158;DHT22;41972;48.774;9.282;2023-06-04T12:54:28;24.10;99.90
2158;DHT22;41972;48.774;9.282;2023-06-04T12:56:55;24.30;99.90
2158;DHT22;41972;48.774;9.282;2023-06-04T12:59:24;24.60;99.90
2158;DHT22;41972;48.774;9.282;2023-06-04T13:01:51;24.70;99.90
2158;DHT22;41972;48.774;9.282;2023-06-04T13:04:16;24.00;99.90
2158;DHT22;41972;48.774;9.282;2023-06-04T13:06:42;23.90;99.90
2158;DHT22;41972;48.774;9.282;2023-06-04T13:09:08;24.10;99.90
2158;DHT22;41972;48.774;9.282;2023-06-04T13:11:39;24.00;99.90
2158;DHT22;41972;48.774;9.282;2023-06-04T13:14:04;23.90;99.90
2158;DHT22;41972;48.774;9.282;2023-06-04T13:16:30;24.00;99.90
2158;DHT22;41972;48.774;9.282;2023-06-04T13:18:56;24.10;99.90
2158;DHT22;41972;48.774;9.282;2023-06-04T13:21:21;24.30;99.90
2158;DHT22;41972;48.774;9.282;2023-06-04T13:23:47;24.50;99.90
2158;DHT22;41972;48.774;9.282;2023-06-04T13:26:13;24.60;99.90
2158;DHT22;41972;48.774;9.282;2023-06-04T13:28:38;24.50;99.90
2158;DHT22;41972;48.774;9.282;2023-06-04T13:31:04;24.50;99.90
2158;DHT22;41972;48.774;9.282;2023-06-04T13:33:30;24.50;99.90
2158;DHT22;41972;48.774;9.282;2023-06-04T13:35:55;24.50;99.90
2158;DHT22;41972;48.774;9.282;2023-06-04T13:38:21;24.50;99.90
2158;DHT22;41972;48.774;9.282;2023-06-04T13:40:47;24.50;99.90
2158;DHT22;41972;48.774;9.282;2023-06-04T13:43:12;24.40;99.90
2158;DHT22;41972;48.774;9.282;2023-06-04T13:45:38;24.50;99.90
2158;DHT22;41972;48.774;9.282;2023-06-04T13:48:05;24.60;99.90
2158;DHT22;41972;48.774;9.282;2023-06-04T13:50:33;24.40;99.90
2158;DHT22;41972;48.774;9.282;2023-06-04T13:52:58;24.30;99.90
2158;DHT22;41972;48.774;9.282;2023-06-04T13:55:24;24.30;99.90
2158;DHT22;41972;48.774;9.282;2023-06-04T13:57:49;24.10;99.90
2158;DHT22;41972;48.774;9.282;2023-06-04T14:00:15;24.30;99.90
2158;DHT22;41972;48.774;9.282;2023-06-04T14:02:41;24.50;99.90
2158;DHT22;41972;48.774;9.282;2023-06-04T14:05:07;24.40;99.90
2158;DHT22;41972;48.774;9.282;2023-06-04T14:07:33;24.30;99.90
2158;DHT22;41972;48.774;9.282;2023-06-04T14:09:59;24.70;99.90
2158;DHT22;41972;48.774;9.282;2023-06-04T14:12:24;24.60;99.90
2158;DHT22;41972;48.774;9.282;2023-06-04T14:14:51;24.20;99.90
2158;DHT22;41972;48.774;9.282;2023-06-04T14:17:17;24.20;99.90
2158;DHT22;41972;48.774;9.282;2023-06-04T14:19:42;24.10;99.90
2158;DHT22;41972;48.774;9.282;2023-06-04T14:22:10;24.20;99.90
2158;DHT22;41972;48.774;9.282;2023-06-04T14:24:36;24.30;99.90
2158;DHT22;41972;48.774;9.282;2023-06-04T14:27:02;24.10;99.90
2158;DHT22;41972;48.774;9.282;2023-06-04T14:29:27;24.10;99.90
2158;DHT22;41972;48.774;9.282;2023-06-04T14:31:53;24.10;99.90
2158;DHT22;41972;48.774;9.282;2023-06-04T14:34:18;24.20;99.90
2158;DHT22;41972;48.774;9.282;2023-06-04T14:36:45;24.30;99.90
2158;DHT22;41972;48.774;9.282;2023-06-04T14:39:11;23.90;99.90
2158;DHT22;41972;48.774;9.282;2023-06-04T14:41:36;24.20;99.90
2158;DHT22;41972;48.774;9.282;2023-06-04T14:44:02;24.30;99.90
2158;DHT22;41972;48.774;9.282;2023-06-04T14:46:27;24.40;99.90
2158;DHT22;41972;48.774;9.282;2023-06-04T14:48:53;24.50;99.90
2158;DHT22;41972;48.774;9.282;2023-06-04T14:51:20;24.70;99.90
2158;DHT22;41972;48.774;9.282;2023-06-04T14:53:47;24.60;99.90
2158;DHT22;41972;48.774;9.282;2023-06-04T14:56:13;24.90;99.90
2158;DHT22;41972;48.774;9.282;2023-06-04T14:58:39;24.30;99.90
2158;DHT22;41972;48.774;9.282;2023-06-04T15:01:04;24.30;99.90
2158;DHT22;41972;48.774;9.282;2023-06-04T15:03:32;24.30;99.90
2158;DHT22;41972;48.774;9.282;2023-06-04T15:05:58;24.30;99.90
2158;DHT22;41972;48.774;9.282;2023-06-04T15:08:23;24.10;99.90
2158;DHT22;41972;48.774;9.282;2023-06-04T15:10:49;24.00;99.90
2158;DHT22;41972;48.774;9.282;2023-06-04T15:13:14;24.30;99.90
2158;DHT22;41972;48.774;9.282;2023-06-04T15:15:40;24.40;99.90
2158;DHT22;41972;48.774;9.282;2023-06-04T15:18:05;24.30;99.90
2158;DHT22;41972;48.774;9.282;2023-06-04T15:20:32;24.10;99.90
2158;DHT22;41972;48.774;9.282;2023-06-04T15:22:58;24.30;99.90
2158;DHT22;41972;48.774;9.282;2023-06-04T15:25:23;24.40;99.90
2158;DHT22;41972;48.774;9.282;2023-06-04T15:27:49;24.10;99.90
2158;DHT22;41972;48.774;9.282;2023-06-04T15:30:16;23.90;99.90
2158;DHT22;41972;48.774;9.282;2023-06-04T15:32:43;24.10;99.90
2158;DHT22;41972;48.774;9.282;2023-06-04T15:35:09;24.30;99.90
2158;DHT22;41972;48.774;9.282;2023-06-04T15:37:35;24.40;99.90
2158;DHT22;41972;48.774;9.282;2023-06-04T15:40:01;24.50;99.90
2158;DHT22;41972;48.774;9.282;2023-06-04T15:42:26;24.50;99.90
2158;DHT22;41972;48.774;9.282;2023-06-04T15:44:52;24.40;99.90
2158;DHT22;41972;48.774;9.282;2023-06-04T15:47:18;24.40;99.90
2158;DHT22;41972;48.774;9.282;2023-06-04T15:49:43;24.40;99.90
2158;DHT22;41972;48.774;9.282;2023-06-04T15:52:09;24.40;99.90
2158;DHT22;41972;48.774;9.282;2023-06-04T15:54:34;24.40;99.90